ADDS METAR Data INFO
IDs: Format: Raw Decoded Include TAF

Data at: 1524 UTC 18 Jun 2018

PAPM 180256Z AUTO 09/08 RMK AO2 RAB35RAEMM SLPNO P0000 60002 T00890078 PWINO $
PAPM 180251Z AUTO 09/08 RMK AO2 RAB35RAEMM P0000 PWINO $
PAPM 180231Z AUTO 10008KT 10SM BKN016 BKN027 OVC044 09/07 A2958 RMK AO2
PAPM 180156Z AUTO 10009KT 10SM BKN014 BKN023 OVC031 09/07 A2959 RMK AO2 RAE50 SLP022 P0000 T00890072
PAPM 180116Z AUTO 11009KT 10SM -RA OVC016 09/07 A2959 RMK AO2 P0000
PAPM 180104Z AUTO 11008G19KT 10SM -RA BKN014 OVC021 09/07 A2959 RMK AO2 P0000
PAPM 180056Z AUTO 11008G16KT 7SM -RA BKN016 OVC023 09/07 A2959 RMK AO2 SLP023 P0002 T00890072
PAPM 172333Z AUTO 10011KT 10SM BKN013 OVC018 09/08 A2958 RMK AO2 RAE21 P0000
PAPM 172256Z AUTO 11013KT 10SM -RA BKN015 BKN024 OVC033 09/07 A2958 RMK AO2 SLP020 P0000 T00940072
PAPM 172204Z AUTO 11015G22KT 10SM -RA BKN016 OVC033 09/07 A2958 RMK AO2 P0000
PAPM 172156Z AUTO 11015G21KT 10SM -RA BKN014 BKN019 OVC027 09/07 A2958 RMK AO2 SLP019 P0001 T00890072
PAPM 172119Z AUTO 11012G17KT 10SM -RA BKN016 OVC025 09/07 A2958 RMK AO2 P0000
PAPM 172056Z AUTO 11014KT 10SM -RA BKN014 OVC021 09/07 A2957 RMK AO2 SLP017 P0002 60005 T00940072 52011
PAPM 172038Z AUTO 11012KT 9SM -RA BKN014 BKN019 OVC024 09/08 A2957 RMK AO2 P0001
PAPM 171956Z AUTO 10012KT 10SM -RA OVC015 09/07 A2956 RMK AO2 SLP012 P0002 T00890072
PAPM 171856Z AUTO 11011G17KT 10SM -RA FEW014 BKN026 OVC032 09/07 A2955 RMK AO2 SLP010 P0001 T00890072
PAPM 171756Z AUTO 13009KT 10SM -RA SCT016 BKN023 OVC032 09/07 A2954 RMK AO2 SLP006 P0001 60010 T00890067 10089 20083 53011
PAPM 171703Z AUTO 10011KT 10SM -RA SCT019 BKN025 OVC050 09/07 A2952 RMK AO2 P0000
PAPM 171656Z AUTO 11007KT 10SM -RA FEW017 BKN033 OVC050 09/07 A2953 RMK AO2 SLP001 P0001 T00890072
PAPM 171630Z AUTO 12010KT 10SM -RA FEW015 BKN030 OVC042 09/07 A2952 RMK AO2 P0001
PAPM 171622Z AUTO 12009KT 10SM -RA FEW012 BKN029 OVC036 09/07 A2952 RMK AO2 P0000
PAPM 171556Z AUTO 12008KT 10SM -RA OVC012 09/08 A2951 RMK AO2 SLPNO P0002 T00890078
PAPM 171456Z AUTO 09008KT 7SM -RA OVC014 09/08 A2951 RMK AO2 SLPNO P0002 60006 T00890078 51001
PAPM 171444Z AUTO 10010KT 9SM -RA OVC014 09/07 A2951 RMK AO2 P0001
PAPM 171429Z AUTO 11007KT 10SM -RA OVC016 09/07 A2951 RMK AO2 P0001
PAPM 171356Z AUTO 09008KT 9SM -RA BKN014 BKN022 OVC060 08/07 A2951 RMK AO2 SLPNO P0002 T00830072
PAPM 171333Z AUTO 09008KT 10SM -RA SCT014 BKN060 OVC070 08/08 A2951 RMK AO2 P0001
PAPM 171320Z AUTO 09006KT 10SM -RA BKN014 BKN041 OVC070 08/08 A2951 RMK AO2 P0000
PAPM 171256Z AUTO 10008KT 10SM -RA FEW016 BKN043 OVC065 09/08 A2951 RMK AO2 SLPNO P0002 T00890078
PAPM 171156Z AUTO 10007KT 10SM -RA OVC055 08/07 A2950 RMK AO2 SLPNO P0001 60002 7//// T00830072 10089 20083 53006
PAPM 171056Z AUTO 09010KT 10SM -RA BKN050 OVC065 08/07 A2950 RMK AO2 RAE04B26 SLPNO P0000 T00830072
PAPM 170956Z AUTO 07009KT 10SM -RA SCT042 BKN050 OVC065 09/07 A2949 RMK AO2 SLPNO P0000 T00890072
PAPM 170856Z AUTO 09006KT 10SM -RA FEW017 BKN036 OVC100 09/08 A2948 RMK AO2 SLPNO P0000 60001 T00890078 401000089 51011
PAPM 170822Z AUTO 10007KT 10SM -RA FEW018 SCT028 OVC045 09/08 A2948 RMK AO2 P0000
PAPM 170756Z AUTO 11006KT 10SM -RA FEW014 BKN020 OVC046 09/08 A2948 RMK AO2 SLPNO P0001 T00890078
PAPM 170656Z AUTO 11006KT 10SM -RA SCT018 OVC023 09/08 A2946 RMK AO2 SLPNO P0000 T00890078
PAPM 170628Z AUTO 10009KT 10SM -RA SCT014 BKN023 OVC045 09/08 A2946 RMK AO2 P0000
PAPM 170556Z AUTO 08007KT 10SM -RA OVC050 09/08 A2945 RMK AO2 SLPNO P0002 6//// T00890078
PAPM 170456Z AUTO 08011KT 10SM -RA FEW037 OVC060 09/08 A2945 RMK AO2 RAB15 SLPNO T00940078